createdAt,value
2023-03-06T00:00:10.606Z,99619.06
2023-03-06T00:00:28.709Z,99615.44
2023-03-06T00:00:44.761Z,99611.84
2023-03-06T00:00:59.668Z,99615.44
2023-03-06T00:01:17.122Z,99624.22
2023-03-06T00:01:29.255Z,99612.81
2023-03-06T00:01:41.371Z,99619.06
2023-03-06T00:01:53.405Z,99620.88
2023-03-06T00:02:05.619Z,99613.13
2023-03-06T00:02:17.748Z,99619.22
2023-03-06T00:02:31.222Z,99622.72
2023-03-06T00:02:44.234Z,99618.41
2023-03-06T00:02:57.015Z,99616.75
2023-03-06T00:03:09.910Z,99613.13
2023-03-06T00:03:22.556Z,99617.59
2023-03-06T00:03:34.718Z,99617.44
2023-03-06T00:03:47.189Z,99608.66
2023-03-06T00:03:59.670Z,99615.63
2023-03-06T00:04:11.570Z,99618.41
2023-03-06T00:04:23.741Z,99613.13
2023-03-06T00:04:36.473Z,99611.31
2023-03-06T00:04:48.744Z,99617.44
2023-03-06T00:05:01.044Z,99618.41
2023-03-06T00:05:14.026Z,99612.16
2023-03-06T00:05:27.685Z,99618.41
2023-03-06T00:05:41.671Z,99613.13
2023-03-06T00:05:54.036Z,99614.78
2023-03-06T00:06:06.859Z,99616.59
2023-03-06T00:06:19.323Z,99619.41
2023-03-06T00:06:32.655Z,99615.09
2023-03-06T00:06:45.356Z,99615.75
2023-03-06T00:06:57.706Z,99617.59
2023-03-06T00:07:12.085Z,99612.31
2023-03-06T00:07:26.220Z,99618.41
2023-03-06T00:07:39.434Z,99621.03
2023-03-06T00:07:52.024Z,99612.31
2023-03-06T00:08:06.105Z,99623.69
2023-03-06T00:08:18.467Z,99620.06
2023-03-06T00:08:32.238Z,99616.59
2023-03-06T00:08:45.084Z,99617.44
2023-03-06T00:08:58.153Z,99613.94
2023-03-06T00:09:11.260Z,99607.03
2023-03-06T00:09:23.736Z,99612.97
2023-03-06T00:09:36.038Z,99622.53
2023-03-06T00:09:48.323Z,99608.38
2023-03-06T00:10:00.227Z,99613.81
2023-03-06T00:10:14.829Z,99615.44
2023-03-06T00:10:29.771Z,99610.16
2023-03-06T00:10:42.100Z,99618.25
2023-03-06T00:10:54.516Z,99611.16
2023-03-06T00:11:07.197Z,99605.06
2023-03-06T00:11:19.611Z,99617.25
2023-03-06T00:11:31.853Z,99617.09
2023-03-06T00:11:44.121Z,99617.25
2023-03-06T00:11:56.842Z,99614.78
2023-03-06T00:12:10.252Z,99610.16
2023-03-06T00:12:23.692Z,99621.72
2023-03-06T00:12:35.917Z,99616.28
2023-03-06T00:12:49.130Z,99611.97
2023-03-06T00:13:03.059Z,99607.69
2023-03-06T00:13:17.798Z,99607.69
2023-03-06T00:13:29.986Z,99616.44
2023-03-06T00:13:42.213Z,99617.59
2023-03-06T00:13:54.722Z,99616.59
2023-03-06T00:14:06.743Z,99616.59
2023-03-06T00:14:18.584Z,99616.59
2023-03-06T00:14:30.547Z,99615.75
2023-03-06T00:14:43.065Z,99612.31
2023-03-06T00:14:55.461Z,99607.84
2023-03-06T00:15:09.898Z,99614.78
2023-03-06T00:15:24.039Z,99610.63
2023-03-06T00:15:37.272Z,99607.19
2023-03-06T00:15:50.369Z,99614.94
2023-03-06T00:16:03.916Z,99616.75
2023-03-06T00:16:16.169Z,99607.84
2023-03-06T00:16:29.849Z,99609.66
2023-03-06T00:16:42.540Z,99615.09
2023-03-06T00:16:55.287Z,99611.09
2023-03-06T00:17:09.802Z,99608.00
2023-03-06T00:17:23.334Z,99612.59
2023-03-06T00:17:35.647Z,99606.69
2023-03-06T00:17:50.203Z,99603.88
2023-03-06T00:18:03.619Z,99618.88
2023-03-06T00:18:16.518Z,99617.22
2023-03-06T00:18:28.832Z,99612.94
2023-03-06T00:18:41.876Z,99608.47
2023-03-06T00:18:54.210Z,99611.97
2023-03-06T00:19:07.254Z,99611.09
2023-03-06T00:19:19.787Z,99615.56
2023-03-06T00:19:32.506Z,99612.09
2023-03-06T00:19:45.015Z,99613.75
2023-03-06T00:19:57.432Z,99613.75
2023-03-06T00:20:10.809Z,99612.09
2023-03-06T00:20:25.092Z,99612.94
2023-03-06T00:20:39.021Z,99613.06
2023-03-06T00:20:51.254Z,99617.38
2023-03-06T00:21:07.611Z,99613.06
2023-03-06T00:21:19.457Z,99614.75
2023-03-06T00:21:31.806Z,99617.38
2023-03-06T00:21:44.707Z,99612.94
2023-03-06T00:21:57.270Z,99615.72
2023-03-06T00:22:15.409Z,99617.38
2023-03-06T00:22:27.244Z,99622.81
2023-03-06T00:22:40.817Z,99620.00
2023-03-06T00:22:53.370Z,99605.00
2023-03-06T00:23:06.089Z,99615.56
2023-03-06T00:23:18.379Z,99616.22
2023-03-06T00:23:32.031Z,99614.75
2023-03-06T00:23:44.379Z,99617.22
2023-03-06T00:23:57.116Z,99605.81
2023-03-06T00:24:09.166Z,99612.94
2023-03-06T00:24:22.371Z,99618.06
2023-03-06T00:24:35.978Z,99611.09
2023-03-06T00:24:49.416Z,99609.31
2023-03-06T00:25:04.693Z,99610.97
2023-03-06T00:25:18.955Z,99610.28
2023-03-06T00:25:31.130Z,99611.09
2023-03-06T00:25:44.177Z,99611.09
2023-03-06T00:25:56.799Z,99609.31
2023-03-06T00:26:10.688Z,99605.81
2023-03-06T00:26:25.405Z,99611.78
2023-03-06T00:26:39.350Z,99612.94
2023-03-06T00:26:52.759Z,99598.78
2023-03-06T00:27:05.226Z,99607.19
2023-03-06T00:27:17.658Z,99591.69
2023-03-06T00:27:31.160Z,99598.59
2023-03-06T00:27:43.363Z,99601.91
2023-03-06T00:27:55.709Z,99606.50
2023-03-06T00:28:09.307Z,99606.34
2023-03-06T00:28:21.773Z,99604.53
2023-03-06T00:28:33.835Z,99597.63
2023-03-06T00:28:46.560Z,99604.53
2023-03-06T00:28:58.774Z,99605.53
2023-03-06T00:29:11.695Z,99598.59
2023-03-06T00:29:24.402Z,99596.28
2023-03-06T00:29:36.533Z,99602.03
2023-03-06T00:29:48.981Z,99592.66
2023-03-06T00:30:02.242Z,99597.63
2023-03-06T00:30:16.892Z,99601.91
2023-03-06T00:30:29.010Z,99600.25
2023-03-06T00:30:41.437Z,99602.38
2023-03-06T00:30:53.721Z,99597.78
2023-03-06T00:31:06.472Z,99602.22
2023-03-06T00:31:19.364Z,99599.88
2023-03-06T00:31:33.150Z,99595.47
2023-03-06T00:31:45.820Z,99596.13
2023-03-06T00:31:58.106Z,99605.81
2023-03-06T00:32:11.790Z,99601.41
2023-03-06T00:32:25.240Z,99595.28
2023-03-06T00:32:37.880Z,99594.31
2023-03-06T00:32:50.416Z,99599.59
2023-03-06T00:33:03.307Z,99599.59
2023-03-06T00:33:16.624Z,99599.59
2023-03-06T00:33:29.058Z,99600.56
2023-03-06T00:33:41.607Z,99599.59
2023-03-06T00:33:54.027Z,99610.13
2023-03-06T00:34:07.176Z,99594.59
2023-03-06T00:34:19.476Z,99598.78
2023-03-06T00:34:32.340Z,99602.22
2023-03-06T00:34:48.179Z,99604.03
2023-03-06T00:35:01.058Z,99605.81
2023-03-06T00:35:14.782Z,99595.13
2023-03-06T00:35:28.894Z,99592.66
2023-03-06T00:35:42.056Z,99597.78
2023-03-06T00:35:54.366Z,99595.13
2023-03-06T00:36:07.264Z,99598.59
2023-03-06T00:36:19.873Z,99594.47
2023-03-06T00:36:32.236Z,99590.19
2023-03-06T00:36:45.536Z,99595.94
2023-03-06T00:36:58.259Z,99594.13
2023-03-06T00:37:11.470Z,99590.19
2023-03-06T00:37:25.230Z,99605.53
2023-03-06T00:37:38.102Z,99586.41
2023-03-06T00:37:51.584Z,99598.59
2023-03-06T00:38:03.846Z,99590.69
2023-03-06T00:38:18.018Z,99596.78
2023-03-06T00:38:30.938Z,99593.31
2023-03-06T00:38:43.104Z,99590.69
2023-03-06T00:38:55.645Z,99593.16
2023-03-06T00:39:10.152Z,99587.91
2023-03-06T00:39:22.365Z,99595.66
2023-03-06T00:39:34.496Z,99597.44
2023-03-06T00:39:47.152Z,99597.44
2023-03-06T00:40:00.698Z,99587.75
2023-03-06T00:40:15.816Z,99598.28
2023-03-06T00:40:30.007Z,99596.47
2023-03-06T00:40:42.650Z,99587.75
2023-03-06T00:40:54.680Z,99592.16
2023-03-06T00:41:08.237Z,99585.56
2023-03-06T00:41:21.117Z,99588.72
2023-03-06T00:41:33.216Z,99590.53
2023-03-06T00:41:47.016Z,99589.53
2023-03-06T00:41:59.750Z,99593.84
2023-03-06T00:42:12.745Z,99590.38
2023-03-06T00:42:25.079Z,99587.75
2023-03-06T00:42:37.402Z,99594.81
2023-03-06T00:42:50.391Z,99578.50
2023-03-06T00:43:07.199Z,99589.53
2023-03-06T00:43:21.486Z,99595.66
2023-03-06T00:43:34.670Z,99593.84
2023-03-06T00:43:48.086Z,99589.72
2023-03-06T00:44:00.554Z,99596.34
2023-03-06T00:44:14.179Z,99591.19
2023-03-06T00:44:26.335Z,99597.31
2023-03-06T00:44:39.530Z,99589.38
2023-03-06T00:44:54.206Z,99595.66
2023-03-06T00:45:10.744Z,99594.00
2023-03-06T00:45:25.471Z,99594.81
2023-03-06T00:45:37.837Z,99592.34
2023-03-06T00:45:50.676Z,99591.50
2023-03-06T00:46:03.185Z,99601.22
2023-03-06T00:46:15.449Z,99590.69
2023-03-06T00:46:27.794Z,99591.69
2023-03-06T00:46:42.195Z,99597.78
2023-03-06T00:46:54.910Z,99592.50
2023-03-06T00:47:09.693Z,99589.84
2023-03-06T00:47:21.814Z,99595.13
2023-03-06T00:47:34.743Z,99594.31
2023-03-06T00:47:47.734Z,99587.38
2023-03-06T00:48:00.927Z,99586.53
2023-03-06T00:48:13.201Z,99597.91
2023-03-06T00:48:25.445Z,99591.81
2023-03-06T00:48:37.736Z,99586.69
2023-03-06T00:48:49.925Z,99592.66
2023-03-06T00:49:04.459Z,99597.09
2023-03-06T00:49:16.837Z,99592.81
2023-03-06T00:49:29.795Z,99590.19
2023-03-06T00:49:44.738Z,99589.34
2023-03-06T00:49:58.490Z,99589.34
2023-03-06T00:50:11.655Z,99590.19
2023-03-06T00:50:23.958Z,99593.63
2023-03-06T00:50:36.977Z,99589.34
2023-03-06T00:50:49.470Z,99591.97
2023-03-06T00:51:01.848Z,99593.97
2023-03-06T00:51:14.654Z,99590.19
2023-03-06T00:51:28.576Z,99594.59
2023-03-06T00:51:40.615Z,99589.34
2023-03-06T00:51:52.601Z,99597.25
2023-03-06T00:52:06.343Z,99595.59
2023-03-06T00:52:19.395Z,99590.31
2023-03-06T00:52:31.921Z,99593.78
2023-03-06T00:52:44.758Z,99591.97
2023-03-06T00:52:58.540Z,99594.59
2023-03-06T00:53:11.513Z,99597.44
2023-03-06T00:53:24.122Z,99589.34
2023-03-06T00:53:36.626Z,99596.44
2023-03-06T00:53:48.808Z,99586.06
2023-03-06T00:54:03.293Z,99590.31
2023-03-06T00:54:15.035Z,99587.69
2023-03-06T00:54:27.447Z,99587.69
2023-03-06T00:54:39.704Z,99593.78
2023-03-06T00:54:54.345Z,99585.88
2023-03-06T00:55:08.082Z,99589.34
2023-03-06T00:55:20.093Z,99583.25
2023-03-06T00:55:32.081Z,99588.38
2023-03-06T00:55:44.556Z,99585.72
2023-03-06T00:55:57.217Z,99584.06
2023-03-06T00:56:09.189Z,99582.41
2023-03-06T00:56:21.617Z,99578.78
2023-03-06T00:56:34.208Z,99581.41
2023-03-06T00:56:46.334Z,99584.06
2023-03-06T00:56:59.242Z,99586.69
2023-03-06T00:57:12.683Z,99580.78
2023-03-06T00:57:24.598Z,99588.38
2023-03-06T00:57:36.876Z,99586.69
2023-03-06T00:57:51.129Z,99583.09
2023-03-06T00:58:03.615Z,99582.28
2023-03-06T00:58:23.705Z,99582.28
2023-03-06T00:58:36.078Z,99585.06
2023-03-06T00:58:48.061Z,99584.06
2023-03-06T00:59:00.150Z,99577.00
2023-03-06T00:59:12.566Z,99578.78
2023-03-06T00:59:24.776Z,99577.97
2023-03-06T00:59:38.186Z,99580.44
2023-03-06T00:59:50.506Z,99579.47
2023-03-06T01:00:02.625Z,99569.22
2023-03-06T01:00:15.320Z,99576.81
2023-03-06T01:00:27.530Z,99577.66
2023-03-06T01:00:40.116Z,99580.94
2023-03-06T01:00:53.159Z,99575.66
2023-03-06T01:01:05.572Z,99575.31
2023-03-06T01:01:17.589Z,99576.66
2023-03-06T01:01:29.813Z,99574.84
2023-03-06T01:01:42.407Z,99575.66
2023-03-06T01:01:54.233Z,99574.84
2023-03-06T01:02:06.829Z,99580.13
2023-03-06T01:02:19.339Z,99577.50
2023-03-06T01:02:32.092Z,99577.50
2023-03-06T01:02:44.098Z,99579.31
2023-03-06T01:02:56.224Z,99573.22
2023-03-06T01:03:09.437Z,99575.19
2023-03-06T01:03:22.164Z,99578.50
2023-03-06T01:03:39.132Z,99569.75
2023-03-06T01:03:51.515Z,99578.50
2023-03-06T01:04:05.745Z,99576.66
2023-03-06T01:04:18.288Z,99572.53
2023-03-06T01:04:33.445Z,99573.22
2023-03-06T01:04:46.176Z,99576.81
2023-03-06T01:04:59.726Z,99575.03
2023-03-06T01:05:13.322Z,99576.66
2023-03-06T01:05:26.305Z,99576.66
2023-03-06T01:05:39.505Z,99581.94
2023-03-06T01:05:52.100Z,99581.78
2023-03-06T01:06:04.406Z,99586.06
2023-03-06T01:06:16.512Z,99581.78
2023-03-06T01:06:28.828Z,99577.34
2023-03-06T01:06:41.540Z,99575.53
2023-03-06T01:06:54.457Z,99578.97
2023-03-06T01:07:06.669Z,99575.53
2023-03-06T01:07:20.440Z,99577.34
2023-03-06T01:07:32.234Z,99584.94
2023-03-06T01:07:44.377Z,99576.34
2023-03-06T01:07:58.152Z,99577.19
2023-03-06T01:08:12.069Z,99577.19
2023-03-06T01:08:24.568Z,99572.88
2023-03-06T01:08:37.552Z,99575.53
2023-03-06T01:08:50.493Z,99571.75
2023-03-06T01:09:04.513Z,99577.00
2023-03-06T01:09:16.688Z,99571.75
2023-03-06T01:09:30.106Z,99569.09
2023-03-06T01:09:42.498Z,99575.22
2023-03-06T01:09:55.690Z,99572.75
2023-03-06T01:10:10.550Z,99578.00
2023-03-06T01:10:22.649Z,99572.06
2023-03-06T01:10:37.953Z,99578.84
2023-03-06T01:10:50.375Z,99571.06
2023-03-06T01:11:02.692Z,99577.19
2023-03-06T01:11:15.193Z,99575.38
2023-03-06T01:11:28.956Z,99580.66
2023-03-06T01:11:41.279Z,99572.75
2023-03-06T01:11:53.681Z,99576.34
2023-03-06T01:12:06.760Z,99572.75
2023-03-06T01:12:22.846Z,99571.91
2023-03-06T01:12:36.649Z,99576.19
2023-03-06T01:12:48.813Z,99573.56
2023-03-06T01:13:01.605Z,99571.91
2023-03-06T01:13:14.102Z,99576.19
2023-03-06T01:13:26.528Z,99569.44
2023-03-06T01:13:39.160Z,99566.66
2023-03-06T01:13:51.806Z,99569.44
2023-03-06T01:14:05.940Z,99572.75
2023-03-06T01:14:17.950Z,99573.69
2023-03-06T01:14:30.199Z,99571.06
2023-03-06T01:14:42.493Z,99575.53
2023-03-06T01:14:55.116Z,99569.28
2023-03-06T01:15:08.985Z,99574.56
2023-03-06T01:15:21.696Z,99565.78
2023-03-06T01:15:34.060Z,99565.78
2023-03-06T01:15:47.912Z,99572.75
2023-03-06T01:16:07.352Z,99571.06
2023-03-06T01:16:20.113Z,99567.75
2023-03-06T01:16:34.203Z,99571.06
2023-03-06T01:16:46.429Z,99568.75
2023-03-06T01:16:58.829Z,99571.25
2023-03-06T01:17:12.228Z,99575.53
2023-03-06T01:17:24.611Z,99571.06
2023-03-06T01:17:37.025Z,99569.44
2023-03-06T01:17:51.676Z,99576.34
2023-03-06T01:18:04.186Z,99575.38
2023-03-06T01:18:16.381Z,99572.88
2023-03-06T01:18:28.957Z,99568.59
2023-03-06T01:18:43.145Z,99568.59
2023-03-06T01:18:55.750Z,99571.25
2023-03-06T01:19:08.505Z,99569.44
2023-03-06T01:19:23.410Z,99565.78
2023-03-06T01:19:35.459Z,99567.59
2023-03-06T01:19:48.124Z,99564.97
2023-03-06T01:20:00.371Z,99575.53
2023-03-06T01:20:15.076Z,99567.59
2023-03-06T01:20:28.347Z,99567.59
2023-03-06T01:20:40.745Z,99569.28
2023-03-06T01:20:53.539Z,99565.66
2023-03-06T01:21:07.118Z,99561.19
2023-03-06T01:21:20.243Z,99566.47
2023-03-06T01:21:33.374Z,99566.31
2023-03-06T01:21:45.844Z,99564.50
2023-03-06T01:21:58.135Z,99563.53
2023-03-06T01:22:10.866Z,99559.88
2023-03-06T01:22:23.533Z,99564.19
2023-03-06T01:22:38.526Z,99567.66
2023-03-06T01:22:52.452Z,99560.72
2023-03-06T01:23:05.712Z,99560.56
2023-03-06T01:23:17.969Z,99564.03
2023-03-06T01:23:33.250Z,99556.91
2023-03-06T01:23:45.702Z,99561.22
2023-03-06T01:23:59.409Z,99561.22
2023-03-06T01:24:13.408Z,99562.06
2023-03-06T01:24:26.182Z,99555.81
2023-03-06T01:24:43.897Z,99554.13
2023-03-06T01:24:56.398Z,99563.72
2023-03-06T01:25:09.880Z,99556.63
2023-03-06T01:25:22.116Z,99560.22
2023-03-06T01:25:37.622Z,99561.09
2023-03-06T01:25:50.454Z,99559.41
2023-03-06T01:26:06.080Z,99555.63
2023-03-06T01:26:20.220Z,99561.91
2023-03-06T01:26:32.639Z,99561.91
2023-03-06T01:26:51.756Z,99568.66
2023-03-06T01:27:04.853Z,99565.03
2023-03-06T01:27:17.453Z,99562.25
2023-03-06T01:27:29.649Z,99567.53
2023-03-06T01:27:43.358Z,99558.25
2023-03-06T01:27:56.834Z,99556.97
2023-03-06T01:28:09.109Z,99569.34
2023-03-06T01:28:21.558Z,99553.66
2023-03-06T01:28:34.051Z,99555.47
2023-03-06T01:28:47.840Z,99557.28
2023-03-06T01:29:00.023Z,99562.56
2023-03-06T01:29:13.402Z,99565.22
2023-03-06T01:29:26.071Z,99559.09
2023-03-06T01:29:38.674Z,99567.00
2023-03-06T01:29:50.948Z,99561.09
2023-03-06T01:30:04.045Z,99553.16
2023-03-06T01:30:17.211Z,99563.53
2023-03-06T01:30:29.628Z,99563.53
2023-03-06T01:30:42.532Z,99564.34
2023-03-06T01:30:54.856Z,99563.72
2023-03-06T01:31:08.075Z,99561.72
2023-03-06T01:31:20.485Z,99567.00
2023-03-06T01:31:33.133Z,99556.91
2023-03-06T01:31:48.182Z,99558.44
2023-03-06T01:32:01.136Z,99564.34
2023-03-06T01:32:13.373Z,99559.09
2023-03-06T01:32:27.096Z,99556.78
2023-03-06T01:32:39.707Z,99554.13
2023-03-06T01:32:53.062Z,99559.25
2023-03-06T01:33:05.873Z,99555.81
2023-03-06T01:33:18.059Z,99562.72
2023-03-06T01:33:30.509Z,99558.25
2023-03-06T01:33:43.531Z,99559.25
2023-03-06T01:33:56.129Z,99548.84
2023-03-06T01:34:08.447Z,99550.53
2023-03-06T01:34:21.101Z,99558.44
2023-03-06T01:34:34.120Z,99547.03
2023-03-06T01:34:46.758Z,99547.88
2023-03-06T01:34:59.427Z,99548.38
2023-03-06T01:35:12.989Z,99557.59
2023-03-06T01:35:26.147Z,99553.81
2023-03-06T01:35:38.485Z,99555.47
2023-03-06T01:35:53.189Z,99547.56
2023-03-06T01:36:07.496Z,99547.88
2023-03-06T01:36:19.781Z,99550.19
2023-03-06T01:36:32.288Z,99548.53
2023-03-06T01:36:45.206Z,99538.44
2023-03-06T01:36:57.928Z,99544.41
2023-03-06T01:37:10.936Z,99557.44
2023-03-06T01:37:23.030Z,99547.88
2023-03-06T01:37:35.941Z,99551.34
2023-03-06T01:37:48.790Z,99552.16
2023-03-06T01:38:01.319Z,99551.34
2023-03-06T01:38:15.578Z,99549.69
2023-03-06T01:38:27.953Z,99558.25
2023-03-06T01:38:40.211Z,99555.47
2023-03-06T01:38:52.572Z,99550.34
2023-03-06T01:39:05.485Z,99548.53
2023-03-06T01:39:17.827Z,99547.72
2023-03-06T01:39:30.782Z,99544.41
2023-03-06T01:39:42.625Z,99541.75
2023-03-06T01:39:55.045Z,99546.22
2023-03-06T01:40:10.236Z,99545.41
2023-03-06T01:40:22.716Z,99548.84
2023-03-06T01:40:37.813Z,99541.09
2023-03-06T01:40:51.939Z,99543.91
2023-03-06T01:41:04.786Z,99548.84
2023-03-06T01:41:17.507Z,99536.81
2023-03-06T01:41:29.857Z,99545.41
2023-03-06T01:41:42.548Z,99541.09
2023-03-06T01:41:55.302Z,99548.03
2023-03-06T01:42:07.954Z,99539.44
2023-03-06T01:42:20.651Z,99533.34
2023-03-06T01:42:32.893Z,99550.16
2023-03-06T01:42:50.247Z,99542.09
2023-03-06T01:43:10.004Z,99540.28
2023-03-06T01:43:29.004Z,99543.91
2023-03-06T01:43:42.242Z,99538.63
2023-03-06T01:43:54.467Z,99540.28
2023-03-06T01:44:08.019Z,99540.28
2023-03-06T01:44:20.560Z,99540.28
2023-03-06T01:44:33.617Z,99550.81
2023-03-06T01:45:07.460Z,99550.16
2023-03-06T01:45:57.774Z,99551.97
2023-03-06T01:46:38.178Z,99537.16
2023-03-06T01:46:51.230Z,99545.06
2023-03-06T01:47:03.662Z,99551.16
2023-03-06T01:47:15.895Z,99545.06
2023-03-06T01:47:28.413Z,99548.50
2023-03-06T01:47:40.911Z,99540.09
2023-03-06T01:47:53.772Z,99545.22
2023-03-06T01:48:06.036Z,99547.69
2023-03-06T01:48:20.618Z,99543.25
2023-03-06T01:48:35.411Z,99546.38
2023-03-06T01:48:48.505Z,99538.63
2023-03-06T01:49:04.468Z,99537.63
2023-03-06T01:49:20.643Z,99539.44
2023-03-06T01:49:37.271Z,99543.91
2023-03-06T01:49:50.196Z,99542.09
2023-03-06T01:50:03.902Z,99536.00
2023-03-06T01:50:16.771Z,99538.63
2023-03-06T01:50:29.391Z,99535.31
2023-03-06T01:50:42.527Z,99540.44
2023-03-06T01:50:55.704Z,99540.28
2023-03-06T01:51:09.637Z,99540.28
2023-03-06T01:51:21.971Z,99533.50
2023-03-06T01:51:38.652Z,99543.91
2023-03-06T01:51:53.701Z,99541.09
2023-03-06T01:52:09.116Z,99535.81
2023-03-06T01:52:24.110Z,99531.38
2023-03-06T01:52:43.624Z,99535.81
2023-03-06T01:53:00.069Z,99541.28
2023-03-06T01:53:14.109Z,99540.94
2023-03-06T01:53:27.958Z,99535.00
2023-03-06T01:53:41.362Z,99535.00
2023-03-06T01:53:54.273Z,99536.66
2023-03-06T01:54:10.666Z,99540.59
2023-03-06T01:54:25.348Z,99543.91
2023-03-06T01:54:42.814Z,99550.69
2023-03-06T01:54:59.112Z,99538.44
2023-03-06T01:55:15.713Z,99549.84
2023-03-06T01:55:33.418Z,99543.59
2023-03-06T01:55:46.074Z,99543.72
2023-03-06T01:55:58.790Z,99539.31
2023-03-06T01:56:13.046Z,99547.22
2023-03-06T01:56:26.165Z,99543.59
2023-03-06T01:56:41.928Z,99542.44
2023-03-06T01:56:57.891Z,99542.44
2023-03-06T01:57:13.713Z,99540.63
2023-03-06T01:57:28.979Z,99542.28
2023-03-06T01:57:44.412Z,99542.28
2023-03-06T01:57:59.438Z,99539.66
2023-03-06T01:58:17.776Z,99535.53
2023-03-06T01:58:30.151Z,99545.88
2023-03-06T01:58:44.554Z,99540.78
2023-03-06T01:58:57.373Z,99543.25
2023-03-06T01:59:09.736Z,99537.97
2023-03-06T01:59:22.872Z,99545.88
2023-03-06T01:59:38.442Z,99544.91
2023-03-06T01:59:55.703Z,99540.63
2023-03-06T02:00:13.374Z,99542.44
2023-03-06T02:00:29.531Z,99546.75
2023-03-06T02:00:42.142Z,99543.25
2023-03-06T02:00:54.905Z,99545.88
2023-03-06T02:01:10.121Z,99547.56
2023-03-06T02:01:23.002Z,99540.47
2023-03-06T02:01:36.699Z,99544.25
2023-03-06T02:01:50.275Z,99545.88
2023-03-06T02:02:04.080Z,99546.56
2023-03-06T02:02:19.557Z,99544.91
2023-03-06T02:02:31.443Z,99542.44
2023-03-06T02:02:49.240Z,99540.63
2023-03-06T02:03:06.622Z,99542.44
2023-03-06T02:03:22.864Z,99549.53
2023-03-06T02:03:35.991Z,99541.75
2023-03-06T02:03:50.526Z,99539.78
2023-03-06T02:04:11.554Z,99539.97
2023-03-06T02:04:24.711Z,99544.91
2023-03-06T02:04:38.701Z,99538.81
2023-03-06T02:04:51.217Z,99537.97
2023-03-06T02:05:06.835Z,99547.72
2023-03-06T02:05:19.778Z,99545.75
2023-03-06T02:05:32.735Z,99546.56
2023-03-06T02:05:47.610Z,99542.94
2023-03-06T02:06:02.342Z,99539.50
2023-03-06T02:06:19.010Z,99544.91
2023-03-06T02:06:32.506Z,99537.69
2023-03-06T02:06:49.315Z,99543.78
2023-03-06T02:07:04.414Z,99534.38
2023-03-06T02:07:20.743Z,99537.97
2023-03-06T02:07:33.776Z,99540.47
2023-03-06T02:07:47.359Z,99537.97
2023-03-06T02:08:00.235Z,99539.97
2023-03-06T02:08:16.089Z,99543.25
2023-03-06T02:08:32.926Z,99539.78
2023-03-06T02:08:45.277Z,99537.97
2023-03-06T02:08:57.910Z,99533.03
2023-03-06T02:09:12.355Z,99538.31
2023-03-06T02:09:24.579Z,99543.25
2023-03-06T02:09:39.552Z,99539.78
2023-03-06T02:09:53.551Z,99539.78
2023-03-06T02:10:06.163Z,99536.34
2023-03-06T02:10:21.544Z,99540.63
2023-03-06T02:10:33.950Z,99544.09
2023-03-06T02:10:58.901Z,99535.34
2023-03-06T02:11:14.529Z,99542.13
2023-03-06T02:11:30.148Z,99540.97
2023-03-06T02:11:42.359Z,99537.69
2023-03-06T02:11:54.915Z,99536.19
2023-03-06T02:12:10.210Z,99544.59
2023-03-06T02:12:23.340Z,99540.13
2023-03-06T02:12:36.802Z,99547.22
2023-03-06T02:12:50.922Z,99546.25
2023-03-06T02:13:04.176Z,99535.72
2023-03-06T02:13:17.142Z,99545.25
2023-03-06T02:13:30.202Z,99542.63
2023-03-06T02:13:43.952Z,99545.41
2023-03-06T02:13:57.744Z,99546.09
2023-03-06T02:14:11.404Z,99540.66
2023-03-06T02:14:24.171Z,99542.28
2023-03-06T02:14:38.615Z,99541.47
2023-03-06T02:14:51.197Z,99540.81
2023-03-06T02:15:04.780Z,99544.28
2023-03-06T02:15:20.408Z,99545.78
2023-03-06T02:15:33.482Z,99554.50
2023-03-06T02:15:45.991Z,99541.47
2023-03-06T02:15:59.051Z,99548.41
2023-03-06T02:16:12.293Z,99542.28
2023-03-06T02:16:28.016Z,99542.47
2023-03-06T02:16:45.142Z,99535.84
2023-03-06T02:16:58.526Z,99543.44
2023-03-06T02:17:13.404Z,99546.09
2023-03-06T02:17:27.265Z,99547.91
2023-03-06T02:17:41.768Z,99550.53
2023-03-06T02:17:54.661Z,99549.56
2023-03-06T02:18:07.392Z,99544.28
2023-03-06T02:18:19.924Z,99549.56
2023-03-06T02:18:34.286Z,99546.94
2023-03-06T02:18:46.983Z,99547.91
2023-03-06T02:19:02.624Z,99546.94
2023-03-06T02:19:28.546Z,99550.53
2023-03-06T02:19:52.491Z,99545.41
2023-03-06T02:20:12.227Z,99549.06
2023-03-06T02:20:29.695Z,99542.78
2023-03-06T02:20:46.269Z,99547.09
2023-03-06T02:21:06.590Z,99538.50
2023-03-06T02:21:25.201Z,99545.25
2023-03-06T02:21:38.104Z,99547.91
2023-03-06T02:21:54.014Z,99544.59
2023-03-06T02:22:06.525Z,99543.63
2023-03-06T02:22:20.034Z,99541.47
2023-03-06T02:22:46.271Z,99548.91
2023-03-06T02:23:04.264Z,99546.25
2023-03-06T02:23:28.195Z,99546.25
2023-03-06T02:23:51.509Z,99542.78
2023-03-06T02:24:18.943Z,99547.91
2023-03-06T02:24:37.662Z,99542.63
2023-03-06T02:24:59.004Z,99544.44
2023-03-06T02:25:22.899Z,99540.81
2023-03-06T02:25:38.060Z,99542.47
2023-03-06T02:25:52.783Z,99547.09
2023-03-06T02:26:06.756Z,99542.63
2023-03-06T02:26:20.916Z,99545.25
2023-03-06T02:26:35.048Z,99543.63
2023-03-06T02:26:48.414Z,99544.44
2023-03-06T02:27:03.095Z,99532.22
2023-03-06T02:27:17.178Z,99541.66
2023-03-06T02:27:30.261Z,99545.09
2023-03-06T02:27:42.840Z,99540.66
2023-03-06T02:27:56.097Z,99543.28
2023-03-06T02:28:11.932Z,99539.84
2023-03-06T02:28:26.067Z,99541.47
2023-03-06T02:28:39.068Z,99542.16
2023-03-06T02:28:51.457Z,99542.16
2023-03-06T02:29:03.962Z,99543.97
2023-03-06T02:29:20.699Z,99538.69
2023-03-06T02:29:35.243Z,99537.00
2023-03-06T02:29:50.327Z,99538.69
2023-03-06T02:30:06.478Z,99538.69
2023-03-06T02:30:20.081Z,99536.03
2023-03-06T02:30:32.649Z,99541.31
2023-03-06T02:30:49.170Z,99539.66
2023-03-06T02:31:02.487Z,99531.91
2023-03-06T02:31:21.787Z,99536.19
2023-03-06T02:31:35.137Z,99533.41
2023-03-06T02:31:47.397Z,99538.53
2023-03-06T02:31:59.865Z,99544.78
2023-03-06T02:32:12.464Z,99540.31
2023-03-06T02:32:25.262Z,99537.88
2023-03-06T02:32:38.000Z,99526.94
2023-03-06T02:32:51.414Z,99536.03
2023-03-06T02:33:06.596Z,99544.78
2023-03-06T02:33:20.980Z,99536.03
2023-03-06T02:33:35.375Z,99541.31
2023-03-06T02:34:00.465Z,99533.88
2023-03-06T02:34:54.581Z,99537.00
2023-03-06T02:35:19.356Z,99541.16
2023-03-06T02:35:34.233Z,99532.59
2023-03-06T02:35:52.646Z,99535.91
2023-03-06T02:36:09.578Z,99536.03
2023-03-06T02:36:25.321Z,99535.03
2023-03-06T02:36:41.072Z,99536.72
2023-03-06T02:36:56.630Z,99537.69
2023-03-06T02:37:10.227Z,99540.31
2023-03-06T02:37:27.450Z,99530.75
2023-03-06T02:37:44.069Z,99541.31
2023-03-06T02:37:58.389Z,99535.03
2023-03-06T02:38:15.002Z,99536.88
2023-03-06T02:38:34.813Z,99541.16
2023-03-06T02:38:51.356Z,99533.41
2023-03-06T02:39:08.521Z,99539.34
2023-03-06T02:39:26.124Z,99536.56
2023-03-06T02:39:44.380Z,99531.09
2023-03-06T02:40:08.042Z,99531.78
2023-03-06T02:40:26.703Z,99524.00
2023-03-06T02:40:40.549Z,99535.41
2023-03-06T02:41:03.673Z,99533.75
2023-03-06T02:41:16.051Z,99534.75
2023-03-06T02:41:28.277Z,99531.09
2023-03-06T02:41:40.649Z,99531.09
2023-03-06T02:41:54.892Z,99526.00
2023-03-06T02:42:08.297Z,99531.09
2023-03-06T02:42:26.839Z,99533.75
2023-03-06T02:42:47.212Z,99537.38
2023-03-06T02:43:00.826Z,99532.91
2023-03-06T02:43:15.887Z,99537.38
2023-03-06T02:43:31.934Z,99532.09
2023-03-06T02:43:47.773Z,99535.56